Plato — 8PRX — position and weather

sailwx.info

Track history (hours):
 
Tides and Currents Weather Stations Pressure Air Temp Water Temp Dewpoint Dewpoint Depression Visibility Wind Speed Wind Dir Waves Ship Positions

Plato

Last reported at 2017-Jul-24 18:30 UTC. Time now 2017-Jul-24 18:48 UTC.
Position N 68°29' E 016°07'.

Length 89 m; draft 4.7 m.

Type: Cargo ship. MMSI: 314189000.

Date/timePositionNaut miles runAvg speedWind from/ knotsBaromVisibWave heightAir tempDewpointWater temp
2017-Jul-24 18:30N 68°29' E 016°07'510.2
2017-Jul-24 18:00N 68°24' E 016°02'4 7.8
2017-Jul-24 17:30N 68°21' E 015°56'4 7.1
2017-Jul-24 17:00N 68°18' E 015°49'3 6.9
2017-Jul-24 16:30N 68°16' E 015°43'3 6.7
2017-Jul-24 16:00N 68°13' E 015°37'21 7.1
2017-Jul-24 13:00N 68°03' E 014°47'4 7.4
2017-Jul-24 12:30N 67°60' E 014°41'3 6.1
2017-Jul-24 12:00N 67°58' E 014°35'2 4.4
2017-Jul-24 11:30N 67°56' E 014°31'2 4.6
2017-Jul-24 11:00N 67°54' E 014°27'3 5.0
2017-Jul-24 10:29N 67°52' E 014°23'3 5.2
2017-Jul-24 09:59N 67°50' E 014°18'3 6.5
2017-Jul-24 09:29N 67°48' E 014°12'4 8.8
2017-Jul-24 09:01N 67°45' E 014°05'5 9.4
2017-Jul-24 08:30N 67°41' E 013°57'4 9.0
2017-Jul-24 08:00N 67°38' E 013°49'5 8.9
2017-Jul-24 07:30N 67°35' E 013°41'4 8.9
2017-Jul-24 07:00N 67°31' E 013°33'4 8.8
2017-Jul-24 06:30N 67°28' E 013°25'4 8.7
2017-Jul-24 06:00N 67°25' E 013°18'4 8.6
2017-Jul-24 05:30N 67°22' E 013°11'4 8.6
2017-Jul-24 04:59N 67°18' E 013°03'48 9.2
2017-Jul-23 23:49N 66°41' E 011°47'4 9.9
2017-Jul-23 23:27N 66°38' E 011°42'10 9.7
2017-Jul-23 22:27N 66°30' E 011°28'218 8.7
2017-Jul-22 21:31N 63°30' E 006°37'51 8.7
2017-Jul-22 15:41N 62°48' E 005°34'2 8.5
2017-Jul-22 15:30N 62°47' E 005°32'4 8.4
2017-Jul-22 15:00N 62°43' E 005°27'9 8.7
2017-Jul-22 14:00N 62°36' E 005°16'4 8.2
2017-Jul-22 13:30N 62°33' E 005°11'4 8.0
2017-Jul-22 13:00N 62°30' E 005°06'4 8.0
2017-Jul-22 12:30N 62°26' E 005°01'4 8.0
2017-Jul-22 12:00N 62°23' E 004°57'4 7.8
2017-Jul-22 11:30N 62°20' E 004°52'4 7.8
2017-Jul-22 11:00N 62°16' E 004°47'4 7.7
2017-Jul-22 10:30N 62°13' E 004°44'4 7.6
2017-Jul-22 10:00N 62°09' E 004°41'4 7.5
2017-Jul-22 09:30N 62°06' E 004°37'4 7.6
2017-Jul-22 09:00N 62°02' E 004°35'4 7.6
2017-Jul-22 08:30N 61°59' E 004°32'4 7.6
2017-Jul-22 08:00N 61°55' E 004°29'4 7.5
2017-Jul-22 07:30N 61°52' E 004°26'35 8.1
2017-Jul-22 03:13N 61°17' E 004°17'2 8.7
2017-Jul-22 03:00N 61°16' E 004°17'5 9.1
2017-Jul-22 02:30N 61°11' E 004°17'5 9.5
2017-Jul-22 02:00N 61°06' E 004°17'5 9.6
2017-Jul-22 01:30N 61°01' E 004°17'5 9.4
2017-Jul-22 01:00N 60°57' E 004°18'5 9.4
2017-Jul-22 00:30N 60°52' E 004°18'4 8.9
2017-Jul-22 00:00N 60°48' E 004°18'467 9.1
2017-Jul-19 20:36N 53°01' E 004°23'8510.6
2017-Jul-19 12:34N 51°45' E 003°17'0 0.0
2017-Jul-19 12:30N 51°45' E 003°17'0 0.0
2017-Jul-19 12:00N 51°45' E 003°17'0 0.0
2017-Jul-19 11:30N 51°45' E 003°17'2 3.2
2017-Jul-19 11:00N 51°44' E 003°17'10 9.6
2017-Jul-19 09:55N 51°35' E 003°24'510.9
2017-Jul-19 09:26N 51°30' E 003°28'5 9.6
2017-Jul-19 08:57N 51°27' E 003°34'4 8.0
2017-Jul-19 08:29N 51°27' E 003°40'2 3.3
2017-Jul-19 07:58N 51°27' E 003°42'0 0.0
2017-Jul-19 04:36N 51°27' E 003°42'0 0.0
2017-Jul-19 04:30N 51°27' E 003°42'0 0.0
2017-Jul-19 04:00N 51°27' E 003°42'0 0.0
2017-Jul-19 03:30N 51°27' E 003°42'0 0.0
2017-Jul-18 18:12N 51°27' E 003°42'0 0.0
2017-Jul-18 17:57N 51°27' E 003°42'1 0.2
2017-Jul-18 13:53N 51°28' E 003°41'3 8.5
2017-Jul-18 13:30N 51°24' E 003°43'510.6
2017-Jul-18 13:00N 51°21' E 003°49'1 1.8
2017-Jul-18 12:27N 51°20' E 003°49'1 1.4
2017-Jul-18 11:59N 51°19' E 003°49'1 2.9
2017-Jul-18 11:30N 51°18' E 003°50'3 6.7
2017-Jul-18 11:00N 51°15' E 003°49'4 7.5
2017-Jul-18 10:31N 51°11' E 003°48'2 4.3
2017-Jul-18 10:00N 51°09' E 003°48'0 0.0
2017-Jul-18 09:30N 51°09' E 003°48'0 0.0
2017-Jul-18 09:00N 51°09' E 003°48'0 0.0
2017-Jul-18 08:30N 51°09' E 003°48'0 0.0
2017-Jul-18 08:00N 51°09' E 003°48'0 0.0
2017-Jul-18 07:30N 51°09' E 003°48'0 0.0
2017-Jul-18 07:00N 51°09' E 003°48'0 0.0
2017-Jul-18 06:30N 51°09' E 003°48'0 0.0
2017-Jul-18 05:57N 51°09' E 003°48'0 0.0
2017-Jul-18 05:27N 51°09' E 003°48'0 0.0
2017-Jul-18 04:57N 51°09' E 003°48'0 0.0
2017-Jul-18 04:30N 51°09' E 003°48'0 0.0
2017-Jul-18 04:00N 51°09' E 003°48'0 0.0
2017-Jul-18 03:30N 51°09' E 003°48'0 0.0
2017-Jul-18 03:00N 51°09' E 003°48'0 0.0
2017-Jul-18 02:30N 51°09' E 003°48'0 0.0
2017-Jul-18 01:57N 51°09' E 003°48'0 0.0
2017-Jul-18 01:24N 51°09' E 003°48'0 0.0
2017-Jul-18 01:00N 51°09' E 003°48'0 0.0
2017-Jul-18 00:30N 51°09' E 003°48'0 0.0
2017-Jul-17 23:48N 51°09' E 003°48'0 0.0
2017-Jul-17 23:30N 51°09' E 003°48'0 0.0
2017-Jul-17 23:00N 51°09' E 003°48'0 0.0
2017-Jul-17 22:30N 51°09' E 003°48'0 0.0
2017-Jul-17 22:00N 51°09' E 003°48'0 0.0
2017-Jul-17 21:30N 51°09' E 003°48'0 0.0
2017-Jul-17 21:00N 51°09' E 003°48'0 0.0
2017-Jul-17 20:30N 51°09' E 003°48'0 0.0
2017-Jul-17 20:00N 51°09' E 003°48'0 0.0
2017-Jul-17 19:30N 51°09' E 003°48'0 0.0
2017-Jul-17 19:00N 51°09' E 003°48'0 0.0
2017-Jul-17 18:30N 51°09' E 003°48'0 0.0
2017-Jul-17 18:00N 51°09' E 003°48'0 0.0
2017-Jul-17 17:30N 51°09' E 003°48'0 0.0
2017-Jul-17 16:57N 51°09' E 003°48'0 0.0
2017-Jul-17 16:30N 51°09' E 003°48'0 0.0
2017-Jul-17 15:57N 51°09' E 003°48'0 0.0
2017-Jul-17 15:30N 51°09' E 003°48'0 0.0
2017-Jul-17 15:00N 51°09' E 003°48'0 0.0
2017-Jul-17 14:30N 51°09' E 003°48'0 0.0
2017-Jul-17 14:00N 51°09' E 003°48'0 0.0
2017-Jul-17 13:30N 51°09' E 003°48'0 0.0
2017-Jul-17 13:00N 51°09' E 003°48'0 0.0
2017-Jul-17 12:30N 51°09' E 003°48'0 0.0
2017-Jul-17 12:00N 51°09' E 003°48'0 0.0
2017-Jul-17 11:30N 51°09' E 003°48'0 0.0
2017-Jul-17 11:00N 51°09' E 003°48'0 0.0
2017-Jul-17 10:27N 51°09' E 003°48'0 0.0
2017-Jul-17 10:00N 51°09' E 003°48'0 0.0
2017-Jul-17 09:30N 51°09' E 003°48'0 0.0
2017-Jul-17 09:00N 51°09' E 003°48'0 0.0
2017-Jul-17 08:30N 51°09' E 003°48'0 0.0
2017-Jul-17 08:00N 51°09' E 003°48'0 0.0
2017-Jul-17 07:30N 51°09' E 003°48'0 0.0
2017-Jul-17 07:00N 51°09' E 003°48'0 0.0
2017-Jul-17 06:30N 51°09' E 003°48'0 0.0
2017-Jul-17 06:00N 51°09' E 003°48'0 0.0
2017-Jul-17 05:30N 51°09' E 003°48'0 0.0
2017-Jul-17 05:00N 51°09' E 003°48'0 0.0
2017-Jul-17 04:30N 51°09' E 003°48'0 0.0
2017-Jul-17 04:00N 51°09' E 003°48'0 0.0
2017-Jul-17 03:30N 51°09' E 003°48'0 0.0
2017-Jul-17 02:57N 51°09' E 003°48'0 0.0
2017-Jul-17 02:30N 51°09' E 003°48'0 0.0
2017-Jul-17 02:00N 51°09' E 003°48'0 0.0
2017-Jul-17 01:30N 51°09' E 003°48'0 0.0
2017-Jul-17 01:00N 51°09' E 003°48'0 0.0
2017-Jul-17 00:30N 51°09' E 003°48'0 0.0
2017-Jul-17 00:00N 51°09' E 003°48'0 0.0
2017-Jul-16 23:30N 51°09' E 003°48'0 0.0
2017-Jul-16 23:00N 51°09' E 003°48'0 0.0
2017-Jul-16 22:30N 51°09' E 003°48'0 0.0
2017-Jul-16 22:00N 51°09' E 003°48'0 0.0
2017-Jul-16 21:30N 51°09' E 003°48'0 0.0
2017-Jul-16 21:00N 51°09' E 003°48'0 0.0
2017-Jul-16 20:30N 51°09' E 003°48'0 0.0
2017-Jul-16 20:00N 51°09' E 003°48'0 0.0
2017-Jul-16 19:30N 51°09' E 003°48'0 0.0
2017-Jul-16 19:00N 51°09' E 003°48'0 0.0
2017-Jul-16 18:30N 51°09' E 003°48'0 0.0
2017-Jul-16 18:00N 51°09' E 003°48'0 0.0
2017-Jul-16 17:30N 51°09' E 003°48'0 0.0
2017-Jul-16 17:00N 51°09' E 003°48'0 0.0
2017-Jul-16 16:30N 51°09' E 003°48'0 0.0
2017-Jul-16 16:00N 51°09' E 003°48'0 0.0
2017-Jul-16 15:30N 51°09' E 003°48'0 0.0
2017-Jul-16 15:00N 51°09' E 003°48'0 0.0
2017-Jul-16 14:30N 51°09' E 003°48'0 0.0
2017-Jul-16 14:00N 51°09' E 003°48'0 0.0
2017-Jul-16 13:30N 51°09' E 003°48'0 0.0
2017-Jul-16 13:00N 51°09' E 003°48'0 0.0
2017-Jul-16 12:30N 51°09' E 003°48'0 0.0
2017-Jul-16 12:00N 51°09' E 003°48'0 0.0
2017-Jul-16 11:30N 51°09' E 003°48'0 0.0
2017-Jul-16 11:00N 51°09' E 003°48'0 0.0
2017-Jul-16 10:30N 51°09' E 003°48'0 0.0
2017-Jul-16 10:00N 51°09' E 003°48'0 0.0
2017-Jul-16 09:27N 51°09' E 003°48'0 0.2
2017-Jul-16 09:00N 51°09' E 003°48'2 4.4
2017-Jul-16 08:31N 51°11' E 003°48'4 7.6
2017-Jul-16 08:00N 51°15' E 003°49'3 6.6
2017-Jul-16 07:30N 51°18' E 003°50'2 3.9
2017-Jul-16 07:00N 51°20' E 003°49'0 0.0
2017-Jul-16 06:30N 51°20' E 003°49'1 1.7
2017-Jul-16 06:00N 51°21' E 003°49'5 9.7
2017-Jul-16 05:30N 51°23' E 003°42'510.7
2017-Jul-16 05:00N 51°26' E 003°35'4 8.2
2017-Jul-16 04:28N 51°29' E 003°30'6 9.8
2017-Jul-16 03:51N 51°34' E 003°25'129 7.0
2017-Jul-15 09:20N 53°35' E 004°39'2 7.8
2017-Jul-15 09:00N 53°38' E 004°40'4 7.9
2017-Jul-15 08:30N 53°41' E 004°43'4 8.0
2017-Jul-15 08:00N 53°45' E 004°45'  
Track history (hours):
 
Tides and Currents Weather Stations Pressure Air Temp Water Temp Dewpoint Dewpoint Depression Visibility Wind Speed Wind Dir Waves Ship Positions

Plato

Last reported at 2017-Jul-24 18:30 UTC. Time now 2017-Jul-24 18:48 UTC.
Position N 68°29' E 016°07'.

Length 89 m; draft 4.7 m.

Type: Cargo ship. MMSI: 314189000.

Date/timePositionNaut miles runAvg speedWind from/ knotsBaromVisibWave heightAir tempDewpointWater temp
2017-Jul-24 18:30N 68°29' E 016°07'510.2
2017-Jul-24 18:00N 68°24' E 016°02'4 7.8
2017-Jul-24 17:30N 68°21' E 015°56'4 7.1
2017-Jul-24 17:00N 68°18' E 015°49'3 6.9
2017-Jul-24 16:30N 68°16' E 015°43'3 6.7
2017-Jul-24 16:00N 68°13' E 015°37'21 7.1
2017-Jul-24 13:00N 68°03' E 014°47'4 7.4
2017-Jul-24 12:30N 67°60' E 014°41'3 6.1
2017-Jul-24 12:00N 67°58' E 014°35'2 4.4
2017-Jul-24 11:30N 67°56' E 014°31'2 4.6
2017-Jul-24 11:00N 67°54' E 014°27'3 5.0
2017-Jul-24 10:29N 67°52' E 014°23'3 5.2
2017-Jul-24 09:59N 67°50' E 014°18'3 6.5
2017-Jul-24 09:29N 67°48' E 014°12'4 8.8
2017-Jul-24 09:01N 67°45' E 014°05'5 9.4
2017-Jul-24 08:30N 67°41' E 013°57'4 9.0
2017-Jul-24 08:00N 67°38' E 013°49'5 8.9
2017-Jul-24 07:30N 67°35' E 013°41'4 8.9
2017-Jul-24 07:00N 67°31' E 013°33'4 8.8
2017-Jul-24 06:30N 67°28' E 013°25'4 8.7
2017-Jul-24 06:00N 67°25' E 013°18'4 8.6
2017-Jul-24 05:30N 67°22' E 013°11'4 8.6
2017-Jul-24 04:59N 67°18' E 013°03'48 9.2
2017-Jul-23 23:49N 66°41' E 011°47'4 9.9
2017-Jul-23 23:27N 66°38' E 011°42'10 9.7
2017-Jul-23 22:27N 66°30' E 011°28'218 8.7
2017-Jul-22 21:31N 63°30' E 006°37'51 8.7
2017-Jul-22 15:41N 62°48' E 005°34'2 8.5
2017-Jul-22 15:30N 62°47' E 005°32'4 8.4
2017-Jul-22 15:00N 62°43' E 005°27'9 8.7
2017-Jul-22 14:00N 62°36' E 005°16'4 8.2
2017-Jul-22 13:30N 62°33' E 005°11'4 8.0
2017-Jul-22 13:00N 62°30' E 005°06'4 8.0
2017-Jul-22 12:30N 62°26' E 005°01'4 8.0
2017-Jul-22 12:00N 62°23' E 004°57'4 7.8
2017-Jul-22 11:30N 62°20' E 004°52'4 7.8
2017-Jul-22 11:00N 62°16' E 004°47'4 7.7
2017-Jul-22 10:30N 62°13' E 004°44'4 7.6
2017-Jul-22 10:00N 62°09' E 004°41'4 7.5
2017-Jul-22 09:30N 62°06' E 004°37'4 7.6
2017-Jul-22 09:00N 62°02' E 004°35'4 7.6
2017-Jul-22 08:30N 61°59' E 004°32'4 7.6
2017-Jul-22 08:00N 61°55' E 004°29'4 7.5
2017-Jul-22 07:30N 61°52' E 004°26'35 8.1
2017-Jul-22 03:13N 61°17' E 004°17'2 8.7
2017-Jul-22 03:00N 61°16' E 004°17'5 9.1
2017-Jul-22 02:30N 61°11' E 004°17'5 9.5
2017-Jul-22 02:00N 61°06' E 004°17'5 9.6
2017-Jul-22 01:30N 61°01' E 004°17'5 9.4
2017-Jul-22 01:00N 60°57' E 004°18'5 9.4
2017-Jul-22 00:30N 60°52' E 004°18'4 8.9
2017-Jul-22 00:00N 60°48' E 004°18'467 9.1
2017-Jul-19 20:36N 53°01' E 004°23'8510.6
2017-Jul-19 12:34N 51°45' E 003°17'0 0.0
2017-Jul-19 12:30N 51°45' E 003°17'0 0.0
2017-Jul-19 12:00N 51°45' E 003°17'0 0.0
2017-Jul-19 11:30N 51°45' E 003°17'2 3.2
2017-Jul-19 11:00N 51°44' E 003°17'10 9.6
2017-Jul-19 09:55N 51°35' E 003°24'510.9
2017-Jul-19 09:26N 51°30' E 003°28'5 9.6
2017-Jul-19 08:57N 51°27' E 003°34'4 8.0
2017-Jul-19 08:29N 51°27' E 003°40'2 3.3
2017-Jul-19 07:58N 51°27' E 003°42'0 0.0
2017-Jul-19 04:36N 51°27' E 003°42'0 0.0
2017-Jul-19 04:30N 51°27' E 003°42'0 0.0
2017-Jul-19 04:00N 51°27' E 003°42'0 0.0
2017-Jul-19 03:30N 51°27' E 003°42'0 0.0
2017-Jul-18 18:12N 51°27' E 003°42'0 0.0
2017-Jul-18 17:57N 51°27' E 003°42'1 0.2
2017-Jul-18 13:53N 51°28' E 003°41'3 8.5
2017-Jul-18 13:30N 51°24' E 003°43'510.6
2017-Jul-18 13:00N 51°21' E 003°49'1 1.8
2017-Jul-18 12:27N 51°20' E 003°49'1 1.4
2017-Jul-18 11:59N 51°19' E 003°49'1 2.9
2017-Jul-18 11:30N 51°18' E 003°50'3 6.7
2017-Jul-18 11:00N 51°15' E 003°49'4 7.5
2017-Jul-18 10:31N 51°11' E 003°48'2 4.3
2017-Jul-18 10:00N 51°09' E 003°48'0 0.0
2017-Jul-18 09:30N 51°09' E 003°48'0 0.0
2017-Jul-18 09:00N 51°09' E 003°48'0 0.0
2017-Jul-18 08:30N 51°09' E 003°48'0 0.0
2017-Jul-18 08:00N 51°09' E 003°48'0 0.0
2017-Jul-18 07:30N 51°09' E 003°48'0 0.0
2017-Jul-18 07:00N 51°09' E 003°48'0 0.0
2017-Jul-18 06:30N 51°09' E 003°48'0 0.0
2017-Jul-18 05:57N 51°09' E 003°48'0 0.0
2017-Jul-18 05:27N 51°09' E 003°48'0 0.0
2017-Jul-18 04:57N 51°09' E 003°48'0 0.0
2017-Jul-18 04:30N 51°09' E 003°48'0 0.0
2017-Jul-18 04:00N 51°09' E 003°48'0 0.0
2017-Jul-18 03:30N 51°09' E 003°48'0 0.0
2017-Jul-18 03:00N 51°09' E 003°48'0 0.0
2017-Jul-18 02:30N 51°09' E 003°48'0 0.0
2017-Jul-18 01:57N 51°09' E 003°48'0 0.0
2017-Jul-18 01:24N 51°09' E 003°48'0 0.0
2017-Jul-18 01:00N 51°09' E 003°48'0 0.0
2017-Jul-18 00:30N 51°09' E 003°48'0 0.0
2017-Jul-17 23:48N 51°09' E 003°48'0 0.0
2017-Jul-17 23:30N 51°09' E 003°48'0 0.0
2017-Jul-17 23:00N 51°09' E 003°48'0 0.0
2017-Jul-17 22:30N 51°09' E 003°48'0 0.0
2017-Jul-17 22:00N 51°09' E 003°48'0 0.0
2017-Jul-17 21:30N 51°09' E 003°48'0 0.0
2017-Jul-17 21:00N 51°09' E 003°48'0 0.0
2017-Jul-17 20:30N 51°09' E 003°48'0 0.0
2017-Jul-17 20:00N 51°09' E 003°48'0 0.0
2017-Jul-17 19:30N 51°09' E 003°48'0 0.0
2017-Jul-17 19:00N 51°09' E 003°48'0 0.0
2017-Jul-17 18:30N 51°09' E 003°48'0 0.0
2017-Jul-17 18:00N 51°09' E 003°48'0 0.0
2017-Jul-17 17:30N 51°09' E 003°48'0 0.0
2017-Jul-17 16:57N 51°09' E 003°48'0 0.0
2017-Jul-17 16:30N 51°09' E 003°48'0 0.0
2017-Jul-17 15:57N 51°09' E 003°48'0 0.0
2017-Jul-17 15:30N 51°09' E 003°48'0 0.0
2017-Jul-17 15:00N 51°09' E 003°48'0 0.0
2017-Jul-17 14:30N 51°09' E 003°48'0 0.0
2017-Jul-17 14:00N 51°09' E 003°48'0 0.0
2017-Jul-17 13:30N 51°09' E 003°48'0 0.0
2017-Jul-17 13:00N 51°09' E 003°48'0 0.0
2017-Jul-17 12:30N 51°09' E 003°48'0 0.0
2017-Jul-17 12:00N 51°09' E 003°48'0 0.0
2017-Jul-17 11:30N 51°09' E 003°48'0 0.0
2017-Jul-17 11:00N 51°09' E 003°48'0 0.0
2017-Jul-17 10:27N 51°09' E 003°48'0 0.0
2017-Jul-17 10:00N 51°09' E 003°48'0 0.0
2017-Jul-17 09:30N 51°09' E 003°48'0 0.0
2017-Jul-17 09:00N 51°09' E 003°48'0 0.0
2017-Jul-17 08:30N 51°09' E 003°48'0 0.0
2017-Jul-17 08:00N 51°09' E 003°48'0 0.0
2017-Jul-17 07:30N 51°09' E 003°48'0 0.0
2017-Jul-17 07:00N 51°09' E 003°48'0 0.0
2017-Jul-17 06:30N 51°09' E 003°48'0 0.0
2017-Jul-17 06:00N 51°09' E 003°48'0 0.0
2017-Jul-17 05:30N 51°09' E 003°48'0 0.0
2017-Jul-17 05:00N 51°09' E 003°48'0 0.0
2017-Jul-17 04:30N 51°09' E 003°48'0 0.0
2017-Jul-17 04:00N 51°09' E 003°48'0 0.0
2017-Jul-17 03:30N 51°09' E 003°48'0 0.0
2017-Jul-17 02:57N 51°09' E 003°48'0 0.0
2017-Jul-17 02:30N 51°09' E 003°48'0 0.0
2017-Jul-17 02:00N 51°09' E 003°48'0 0.0
2017-Jul-17 01:30N 51°09' E 003°48'0 0.0
2017-Jul-17 01:00N 51°09' E 003°48'0 0.0
2017-Jul-17 00:30N 51°09' E 003°48'0 0.0
2017-Jul-17 00:00N 51°09' E 003°48'0 0.0
2017-Jul-16 23:30N 51°09' E 003°48'0 0.0
2017-Jul-16 23:00N 51°09' E 003°48'0 0.0
2017-Jul-16 22:30N 51°09' E 003°48'0 0.0
2017-Jul-16 22:00N 51°09' E 003°48'0 0.0
2017-Jul-16 21:30N 51°09' E 003°48'0 0.0
2017-Jul-16 21:00N 51°09' E 003°48'0 0.0
2017-Jul-16 20:30N 51°09' E 003°48'0 0.0
2017-Jul-16 20:00N 51°09' E 003°48'0 0.0
2017-Jul-16 19:30N 51°09' E 003°48'0 0.0
2017-Jul-16 19:00N 51°09' E 003°48'0 0.0
2017-Jul-16 18:30N 51°09' E 003°48'0 0.0
2017-Jul-16 18:00N 51°09' E 003°48'0 0.0
2017-Jul-16 17:30N 51°09' E 003°48'0 0.0
2017-Jul-16 17:00N 51°09' E 003°48'0 0.0
2017-Jul-16 16:30N 51°09' E 003°48'0 0.0
2017-Jul-16 16:00N 51°09' E 003°48'0 0.0
2017-Jul-16 15:30N 51°09' E 003°48'0 0.0
2017-Jul-16 15:00N 51°09' E 003°48'0 0.0
2017-Jul-16 14:30N 51°09' E 003°48'0 0.0
2017-Jul-16 14:00N 51°09' E 003°48'0 0.0
2017-Jul-16 13:30N 51°09' E 003°48'0 0.0
2017-Jul-16 13:00N 51°09' E 003°48'0 0.0
2017-Jul-16 12:30N 51°09' E 003°48'0 0.0
2017-Jul-16 12:00N 51°09' E 003°48'0 0.0
2017-Jul-16 11:30N 51°09' E 003°48'0 0.0
2017-Jul-16 11:00N 51°09' E 003°48'0 0.0
2017-Jul-16 10:30N 51°09' E 003°48'0 0.0
2017-Jul-16 10:00N 51°09' E 003°48'0 0.0
2017-Jul-16 09:27N 51°09' E 003°48'0 0.2
2017-Jul-16 09:00N 51°09' E 003°48'2 4.4
2017-Jul-16 08:31N 51°11' E 003°48'4 7.6
2017-Jul-16 08:00N 51°15' E 003°49'3 6.6
2017-Jul-16 07:30N 51°18' E 003°50'2 3.9
2017-Jul-16 07:00N 51°20' E 003°49'0 0.0
2017-Jul-16 06:30N 51°20' E 003°49'1 1.7
2017-Jul-16 06:00N 51°21' E 003°49'5 9.7
2017-Jul-16 05:30N 51°23' E 003°42'510.7
2017-Jul-16 05:00N 51°26' E 003°35'4 8.2
2017-Jul-16 04:28N 51°29' E 003°30'6 9.8
2017-Jul-16 03:51N 51°34' E 003°25'129 7.0
2017-Jul-15 09:20N 53°35' E 004°39'2 7.8
2017-Jul-15 09:00N 53°38' E 004°40'4 7.9
2017-Jul-15 08:30N 53°41' E 004°43'4 8.0
2017-Jul-15 08:00N 53°45' E 004°45'  

Dump ship's entire track history